High Level Airport
CYOJ : rendu visible

Aérodrome :











RETROUVEZ-NOUS SUR...

 
LOGIN :

S'inscrire | Disclaimer

   EN    FR    IT 

 









Légende :    VFR   VFR Marginal   IFR   IFR Intensif   IFR Très Intensif
Visi : 
Plafond : 
>= 8 km
>= 3000ft
5 à 8 km
1000 à 3000 ft
1500m à 5 km
500 à 1000 ft
800 à 1500m
200 à 500 ft
< 800m
< 200 ft
Symboles :   Orages  Brouillard  Fortes neiges  Fortes précipitations  Vent > 20 kt






- Altitude de l'aérodrome : 1110 ft
- Code IATA : YOJ


CYOJ - High Level

DERNIER METAR :
  • 040805Z AUTO VRB02KT 9SM SCT250 05/05 A2988 RMK SLP132

METARs EXPIRÉS :
  • 040717Z AUTO 00000KT 9SM SCT250 07/06 A2989 RMK SLP133
  • 040716Z AUTO 00000KT 3SM BR SCT250 07/06 A2989 RMK SLP133
  • 040600Z AUTO 10003KT 030V110 9SM BKN080 08/07 A2989 RMK SLP133

TAF TAF CYOJ
Valide du 04 à 07h jusqu'au 04 à 19h UTC


040638Z 0407/0419 VRB03KT P6SM BKN080
TEMPO 0409/0415 2SM BR SCT004 SCT080
PROB30 0409/0414 1/2SM FG VV002
FM041600 14006KT P6SM -SHRA BKN040 RMK FCST BASED ON AUTO OBS. NXT FCST BY 041300Z
FIR CZEG / Amérique du Nord



MET'MAP, la Météo Aéronautique d'un coup d'oeil ! - Copyright ORBIFLY Décembre 2007 - Disclaimer

ORBIFLY MET'MAP TEAM :

Programmation & Développement : Alexandra Zaïnal
Sur une idée originale de : Baudouin d'Aumeries
Assistance à la programmation : Marc-Olivier Méhu
Soutien technique & logistique : Manuel Goepfert

Contact : metmap@orbifly.com




SOURCES & CREDITS :

   NOAA       Earth
Advisory